createdAt,value
2018-07-31T00:00:08.721Z,93311.17
2018-07-31T00:02:36.760Z,93316.72
2018-07-31T00:05:04.972Z,93317.21
2018-07-31T00:07:32.976Z,93318.17
2018-07-31T00:10:00.979Z,93321.97
2018-07-31T00:12:29.113Z,93332.76
2018-07-31T00:14:57.216Z,93329.09
2018-07-31T00:17:25.282Z,93326.05
2018-07-31T00:19:53.265Z,93326.95
2018-07-31T00:22:21.353Z,93321.61
2018-07-31T00:24:49.374Z,93319.48
2018-07-31T00:27:17.475Z,93320.08
2018-07-31T00:29:45.576Z,93325.34
2018-07-31T00:32:13.654Z,93328.68
2018-07-31T00:34:41.766Z,93326.55
2018-07-31T00:37:09.880Z,93329.94
2018-07-31T00:39:37.859Z,93331.48
2018-07-31T00:42:05.973Z,93325.19
2018-07-31T00:44:34.001Z,93326.53
2018-07-31T00:47:02.050Z,93317.66
2018-07-31T00:49:32.384Z,93315.52
2018-07-31T00:52:00.982Z,93319.25
2018-07-31T00:54:29.337Z,93318.70
2018-07-31T00:56:57.398Z,93318.09
2018-07-31T00:59:25.416Z,93311.34
2018-07-31T01:01:53.684Z,93314.48
2018-07-31T01:04:22.006Z,93314.16
2018-07-31T01:06:50.195Z,93318.31
2018-07-31T01:09:18.236Z,93320.94
2018-07-31T01:11:46.443Z,93319.98
2018-07-31T01:14:14.536Z,93311.55
2018-07-31T01:16:42.586Z,93315.77
2018-07-31T01:19:11.332Z,93321.92
2018-07-31T01:21:40.100Z,93317.59
2018-07-31T01:24:08.812Z,93306.95
2018-07-31T01:26:36.854Z,93305.69
2018-07-31T01:29:05.214Z,93306.78
2018-07-31T01:31:33.438Z,93314.46
2018-07-31T01:34:02.090Z,93313.97
2018-07-31T01:36:30.082Z,93321.52
2018-07-31T01:38:58.230Z,93318.41
2018-07-31T01:41:27.260Z,93306.66
2018-07-31T01:43:55.414Z,93305.48
2018-07-31T01:46:23.677Z,93306.93
2018-07-31T01:48:52.373Z,93311.16
2018-07-31T01:51:20.492Z,93309.80
2018-07-31T01:53:48.555Z,93310.25
2018-07-31T01:56:16.704Z,93315.64
2018-07-31T01:58:45.249Z,93309.92
2018-07-31T02:01:13.910Z,93300.73
2018-07-31T02:03:42.084Z,93302.72
2018-07-31T02:06:10.421Z,93303.39
2018-07-31T02:08:38.868Z,93291.79
2018-07-31T02:11:07.150Z,93282.05
2018-07-31T02:13:35.264Z,93278.11
2018-07-31T02:16:03.372Z,93276.05
2018-07-31T02:18:31.460Z,93279.34
2018-07-31T02:20:59.474Z,93284.34
2018-07-31T02:23:27.467Z,93277.67
2018-07-31T02:25:55.525Z,93279.66
2018-07-31T02:28:23.648Z,93274.69
2018-07-31T02:30:51.574Z,93280.30
2018-07-31T02:33:19.667Z,93285.17
2018-07-31T02:35:47.726Z,93280.75
2018-07-31T02:38:15.757Z,93292.16
2018-07-31T02:40:43.845Z,93292.73
2018-07-31T02:43:11.929Z,93297.56
2018-07-31T02:45:39.932Z,93297.83
2018-07-31T02:48:08.029Z,93296.81
2018-07-31T02:50:36.144Z,93299.57
2018-07-31T02:53:04.224Z,93301.84
2018-07-31T02:55:32.335Z,93307.64
2018-07-31T02:58:00.369Z,93297.70
2018-07-31T03:00:28.435Z,93305.84
2018-07-31T03:02:56.440Z,93310.08
2018-07-31T03:05:24.517Z,93311.02
2018-07-31T03:07:52.623Z,93306.59
2018-07-31T03:10:20.732Z,93309.16
2018-07-31T03:12:48.725Z,93304.82
2018-07-31T03:15:16.729Z,93310.27
2018-07-31T03:17:44.816Z,93308.13
2018-07-31T03:20:12.902Z,93315.64
2018-07-31T03:22:41.036Z,93315.45
2018-07-31T03:25:09.149Z,93315.78
2018-07-31T03:27:37.187Z,93316.13
2018-07-31T03:30:05.376Z,93316.97
2018-07-31T03:32:33.557Z,93313.72
2018-07-31T03:35:01.587Z,93318.95
2018-07-31T03:37:29.681Z,93319.52
2018-07-31T03:39:57.874Z,93326.47
2018-07-31T03:42:25.959Z,93330.96
2018-07-31T03:44:53.982Z,93338.97
2018-07-31T03:47:22.028Z,93335.03
2018-07-31T03:49:50.296Z,93337.90
2018-07-31T03:52:18.597Z,93340.61
2018-07-31T03:54:46.919Z,93340.47
2018-07-31T03:57:15.239Z,93337.33
2018-07-31T03:59:43.729Z,93343.77
2018-07-31T04:02:11.984Z,93341.19
2018-07-31T04:04:40.300Z,93338.87
2018-07-31T04:07:08.482Z,93349.48
2018-07-31T04:09:36.835Z,93354.84
2018-07-31T04:12:05.123Z,93358.22
2018-07-31T04:14:33.703Z,93353.69
2018-07-31T04:17:01.902Z,93356.05
2018-07-31T04:19:30.165Z,93356.45
2018-07-31T04:21:58.214Z,93352.27
2018-07-31T04:24:26.357Z,93346.39
2018-07-31T04:26:54.726Z,93360.22
2018-07-31T04:29:23.791Z,93360.75
2018-07-31T04:31:51.939Z,93367.80
2018-07-31T04:34:20.120Z,93374.52
2018-07-31T04:36:48.172Z,93376.77
2018-07-31T04:39:16.296Z,93377.39
2018-07-31T04:41:44.408Z,93371.25
2018-07-31T04:44:12.569Z,93374.41
2018-07-31T04:46:40.719Z,93376.35
2018-07-31T04:49:09.191Z,93376.52
2018-07-31T04:51:37.398Z,93374.91
2018-07-31T04:54:13.823Z,93377.66
2018-07-31T04:56:42.372Z,93380.31
2018-07-31T04:59:10.885Z,93372.95
2018-07-31T05:01:39.348Z,93374.05
2018-07-31T05:04:08.158Z,93378.34
2018-07-31T05:06:36.549Z,93368.51
2018-07-31T05:09:08.042Z,93368.97
2018-07-31T05:11:36.243Z,93365.22
2018-07-31T05:14:05.290Z,93365.94
2018-07-31T05:16:33.605Z,93363.74
2018-07-31T05:19:01.805Z,93365.41
2018-07-31T05:21:30.073Z,93367.07
2018-07-31T05:23:58.224Z,93369.89
2018-07-31T05:26:26.680Z,93374.73
2018-07-31T05:28:55.050Z,93379.42
2018-07-31T05:31:23.827Z,93373.80
2018-07-31T05:33:52.158Z,93382.23
2018-07-31T05:36:20.263Z,93385.53
2018-07-31T05:38:48.523Z,93387.89
2018-07-31T05:41:17.003Z,93377.97
2018-07-31T05:43:45.158Z,93384.88
2018-07-31T05:46:13.442Z,93395.59
2018-07-31T05:48:42.017Z,93392.40
2018-07-31T05:51:10.199Z,93389.02
2018-07-31T05:53:38.352Z,93395.92
2018-07-31T05:56:07.147Z,93390.67
2018-07-31T05:58:35.352Z,93391.98
2018-07-31T06:01:03.723Z,93388.89
2018-07-31T06:03:31.991Z,93389.62
2018-07-31T06:06:00.146Z,93387.44
2018-07-31T06:08:28.325Z,93385.92
2018-07-31T06:10:56.543Z,93387.02
2018-07-31T06:13:24.710Z,93382.06
2018-07-31T06:15:53.017Z,93380.27
2018-07-31T06:18:21.333Z,93379.98
2018-07-31T06:20:49.550Z,93376.27
2018-07-31T06:23:17.772Z,93383.66
2018-07-31T06:25:45.933Z,93382.38
2018-07-31T06:28:14.094Z,93382.55
2018-07-31T06:30:42.523Z,93384.34
2018-07-31T06:33:10.964Z,93382.70
2018-07-31T06:35:39.278Z,93387.98
2018-07-31T06:38:07.969Z,93382.30
2018-07-31T06:40:36.538Z,93381.06
2018-07-31T06:43:04.686Z,93379.08
2018-07-31T06:45:32.963Z,93379.12
2018-07-31T06:48:01.148Z,93376.33
2018-07-31T06:50:29.408Z,93368.25
2018-07-31T06:52:57.548Z,93368.58
2018-07-31T06:55:25.639Z,93369.94
2018-07-31T06:57:53.939Z,93378.12
2018-07-31T07:00:22.077Z,93372.98
2018-07-31T07:02:50.357Z,93371.47
2018-07-31T07:05:18.585Z,93377.78
2018-07-31T07:07:46.765Z,93376.14
2018-07-31T07:10:14.894Z,93374.67
2018-07-31T07:12:43.096Z,93375.49
2018-07-31T07:15:11.632Z,93375.11
2018-07-31T07:17:40.292Z,93377.25
2018-07-31T07:20:08.620Z,93379.22
2018-07-31T07:22:36.915Z,93386.57
2018-07-31T07:25:05.249Z,93383.63
2018-07-31T07:27:33.678Z,93388.41
2018-07-31T07:30:01.852Z,93385.20
2018-07-31T07:32:30.026Z,93392.78
2018-07-31T07:34:58.186Z,93395.47
2018-07-31T07:37:26.434Z,93390.80
2018-07-31T07:39:54.501Z,93391.67
2018-07-31T07:42:22.572Z,93391.20
2018-07-31T07:44:50.709Z,93393.34
2018-07-31T07:47:18.750Z,93391.65
2018-07-31T07:49:46.897Z,93388.90
2018-07-31T07:52:15.092Z,93386.84
2018-07-31T07:54:43.330Z,93392.00
2018-07-31T07:57:11.662Z,93393.92
2018-07-31T07:59:40.069Z,93391.67
2018-07-31T08:02:08.414Z,93394.58
2018-07-31T08:04:36.637Z,93389.98
2018-07-31T08:07:04.816Z,93390.33
2018-07-31T08:09:32.927Z,93390.47
2018-07-31T08:12:01.108Z,93387.90
2018-07-31T08:14:29.182Z,93388.31
2018-07-31T08:16:57.344Z,93382.25
2018-07-31T08:19:25.411Z,93387.66
2018-07-31T08:21:53.763Z,93377.97
2018-07-31T08:24:22.238Z,93378.95
2018-07-31T08:26:50.498Z,93367.98
2018-07-31T08:29:18.777Z,93371.78
2018-07-31T08:31:47.012Z,93370.34
2018-07-31T08:34:15.685Z,93370.98
2018-07-31T08:36:44.377Z,93370.36
2018-07-31T08:39:12.687Z,93370.77
2018-07-31T08:41:41.085Z,93372.30
2018-07-31T08:44:09.598Z,93363.69
2018-07-31T08:46:37.892Z,93368.33
2018-07-31T08:49:06.300Z,93369.05
2018-07-31T08:51:34.590Z,93361.83
2018-07-31T08:54:02.925Z,93359.29
2018-07-31T08:56:31.358Z,93352.38
2018-07-31T08:58:59.687Z,93358.74
2018-07-31T09:01:28.161Z,93354.52
2018-07-31T09:03:56.373Z,93348.66
2018-07-31T09:06:24.682Z,93352.27
2018-07-31T09:08:54.156Z,93342.47
2018-07-31T09:11:22.953Z,93341.09
2018-07-31T09:13:51.896Z,93349.25
2018-07-31T09:16:20.318Z,93343.45
2018-07-31T09:18:48.511Z,93345.67
2018-07-31T09:21:17.462Z,93347.28
2018-07-31T09:23:45.623Z,93342.50
2018-07-31T09:26:13.824Z,93345.66
2018-07-31T09:28:41.993Z,93342.17
2018-07-31T09:31:12.533Z,93341.33
2018-07-31T09:33:41.331Z,93342.85
2018-07-31T09:36:09.758Z,93338.30
2018-07-31T09:38:38.067Z,93348.81
2018-07-31T09:41:06.336Z,93352.19
2018-07-31T09:43:34.491Z,93351.81
2018-07-31T09:46:02.647Z,93355.56
2018-07-31T09:48:31.072Z,93352.39
2018-07-31T09:50:59.233Z,93352.89
2018-07-31T11:00:17.034Z,93320.39
2018-07-31T11:02:45.267Z,93322.14
2018-07-31T11:05:13.490Z,93323.05
2018-07-31T11:07:41.735Z,93319.83
2018-07-31T11:10:10.151Z,93320.45
2018-07-31T11:12:38.350Z,93315.61
2018-07-31T11:15:06.589Z,93322.86
2018-07-31T11:17:34.715Z,93318.63
2018-07-31T11:20:03.122Z,93311.55
2018-07-31T11:22:31.259Z,93306.34
2018-07-31T11:24:59.823Z,93312.28
2018-07-31T11:27:27.983Z,93310.44
2018-07-31T11:29:56.125Z,93311.08
2018-07-31T11:32:24.288Z,93301.23
2018-07-31T11:34:52.412Z,93299.19
2018-07-31T11:37:20.852Z,93300.40
2018-07-31T11:39:49.616Z,93308.12
2018-07-31T11:42:17.992Z,93311.08
2018-07-31T11:44:46.364Z,93305.20
2018-07-31T11:47:14.891Z,93306.55
2018-07-31T11:49:43.196Z,93298.03
2018-07-31T11:52:11.805Z,93312.16
2018-07-31T11:54:40.272Z,93316.00
2018-07-31T11:57:08.682Z,93319.98
2018-07-31T11:59:36.983Z,93315.56
2018-07-31T12:02:05.573Z,93326.75
2018-07-31T12:04:33.968Z,93321.18
2018-07-31T12:07:02.370Z,93316.59
2018-07-31T12:09:30.624Z,93305.20
2018-07-31T12:11:58.876Z,93303.83
2018-07-31T12:14:27.346Z,93303.38
2018-07-31T12:16:56.057Z,93301.91
2018-07-31T12:19:24.600Z,93293.50
2018-07-31T12:21:52.820Z,93293.68
2018-07-31T12:24:21.050Z,93284.80
2018-07-31T12:26:49.474Z,93281.46
2018-07-31T12:29:17.744Z,93277.30
2018-07-31T12:31:46.148Z,93279.16
2018-07-31T12:34:14.427Z,93279.47
2018-07-31T12:36:43.134Z,93281.83
2018-07-31T12:39:12.285Z,93287.60
2018-07-31T12:41:40.425Z,93288.55
2018-07-31T12:44:08.740Z,93290.55
2018-07-31T12:46:37.620Z,93279.30
2018-07-31T12:49:06.300Z,93286.87
2018-07-31T12:51:34.474Z,93283.81
2018-07-31T12:54:02.611Z,93292.42
2018-07-31T12:56:31.290Z,93297.85
2018-07-31T12:58:59.602Z,93304.91
2018-07-31T13:01:27.952Z,93312.96
2018-07-31T13:03:56.291Z,93318.08
2018-07-31T13:06:24.730Z,93316.10
2018-07-31T13:08:52.943Z,93322.92
2018-07-31T13:11:21.249Z,93322.19
2018-07-31T13:13:50.162Z,93323.13
2018-07-31T13:16:18.524Z,93318.84
2018-07-31T13:18:46.811Z,93318.58
2018-07-31T13:21:15.021Z,93323.12
2018-07-31T13:23:43.252Z,93323.89
2018-07-31T13:26:11.560Z,93327.02
2018-07-31T13:28:39.685Z,93336.12
2018-07-31T13:31:08.157Z,93337.80
2018-07-31T13:33:36.329Z,93341.43
2018-07-31T13:36:04.550Z,93337.58
2018-07-31T13:38:32.774Z,93335.44
2018-07-31T13:41:01.055Z,93331.17
2018-07-31T13:43:29.285Z,93333.51
2018-07-31T13:45:57.561Z,93335.23
2018-07-31T13:48:25.744Z,93335.44
2018-07-31T13:50:54.068Z,93332.06
2018-07-31T13:53:22.254Z,93336.50
2018-07-31T13:55:50.387Z,93346.49
2018-07-31T13:58:18.811Z,93347.45
2018-07-31T14:00:46.975Z,93343.33
2018-07-31T14:03:15.116Z,93346.13
2018-07-31T14:05:43.288Z,93348.10
2018-07-31T14:08:11.401Z,93351.77
2018-07-31T14:10:39.712Z,93348.20
2018-07-31T14:13:08.102Z,93349.38
2018-07-31T14:15:36.648Z,93344.13
2018-07-31T14:18:05.215Z,93340.63
2018-07-31T14:20:33.752Z,93350.42
2018-07-31T14:23:02.283Z,93350.16
2018-07-31T14:25:30.620Z,93352.67
2018-07-31T14:27:58.860Z,93356.15
2018-07-31T14:30:27.077Z,93358.16
2018-07-31T14:32:55.299Z,93361.11
2018-07-31T14:35:23.749Z,93361.35
2018-07-31T14:37:52.216Z,93366.72
2018-07-31T14:40:20.899Z,93369.30
2018-07-31T14:42:49.197Z,93376.86
2018-07-31T14:45:17.671Z,93383.45
2018-07-31T14:47:45.779Z,93392.84
2018-07-31T14:50:16.138Z,93392.86
2018-07-31T14:52:47.150Z,93398.50
2018-07-31T14:55:15.968Z,93393.52
2018-07-31T14:57:44.408Z,93396.34
2018-07-31T15:00:12.769Z,93396.95
2018-07-31T15:02:41.122Z,93401.83
2018-07-31T15:05:10.413Z,93405.33
2018-07-31T15:07:38.794Z,93395.20
2018-07-31T15:10:07.951Z,93393.20
2018-07-31T15:12:36.344Z,93398.77
2018-07-31T15:15:05.218Z,93399.27
2018-07-31T15:17:33.581Z,93403.17
2018-07-31T15:20:02.177Z,93400.31
2018-07-31T15:22:32.660Z,93401.33
2018-07-31T15:25:01.395Z,93394.38
2018-07-31T15:27:30.799Z,93400.70
2018-07-31T15:30:00.577Z,93401.41
2018-07-31T15:32:28.943Z,93405.73
2018-07-31T15:34:57.186Z,93410.57
2018-07-31T15:37:25.672Z,93409.13
2018-07-31T15:39:54.174Z,93410.71
2018-07-31T15:42:22.665Z,93407.20
2018-07-31T15:44:52.283Z,93406.02
2018-07-31T15:47:20.535Z,93401.52
2018-07-31T15:49:49.463Z,93399.87
2018-07-31T15:52:17.874Z,93401.17
2018-07-31T15:54:46.134Z,93398.60
2018-07-31T15:57:14.982Z,93399.87
2018-07-31T15:59:43.968Z,93400.09
2018-07-31T16:02:13.602Z,93396.84
2018-07-31T16:04:42.437Z,93395.52
2018-07-31T16:07:11.864Z,93387.97
2018-07-31T16:09:40.366Z,93387.22
2018-07-31T16:12:08.915Z,93387.55
2018-07-31T16:14:37.453Z,93384.74
2018-07-31T16:17:05.788Z,93385.05
2018-07-31T16:19:34.441Z,93374.51
2018-07-31T16:22:02.913Z,93378.48
2018-07-31T16:24:31.293Z,93380.61
2018-07-31T16:26:59.881Z,93388.06
2018-07-31T16:29:28.580Z,93384.08
2018-07-31T16:31:56.901Z,93383.74
2018-07-31T16:34:25.216Z,93383.08
2018-07-31T16:36:53.292Z,93385.22
2018-07-31T16:39:21.808Z,93395.75
2018-07-31T16:41:50.129Z,93394.27
2018-07-31T16:44:18.402Z,93392.56
2018-07-31T16:46:46.633Z,93388.28
2018-07-31T16:49:14.923Z,93390.72
2018-07-31T16:51:43.191Z,93387.58
2018-07-31T16:54:11.932Z,93396.17
2018-07-31T16:56:40.133Z,93401.73
2018-07-31T16:59:08.835Z,93392.99
2018-07-31T17:01:37.095Z,93394.09
2018-07-31T17:04:05.289Z,93399.56
2018-07-31T17:06:33.630Z,93392.11
2018-07-31T17:09:01.829Z,93394.73
2018-07-31T17:11:30.167Z,93398.16
2018-07-31T17:13:58.661Z,93392.22
2018-07-31T17:16:26.878Z,93393.30
2018-07-31T17:18:55.031Z,93401.52
2018-07-31T17:21:23.502Z,93400.39
2018-07-31T17:23:53.178Z,93397.55
2018-07-31T17:26:23.227Z,93396.16
2018-07-31T17:29:03.634Z,93404.71
2018-07-31T17:31:47.842Z,93410.27
2018-07-31T17:34:44.280Z,93417.33
2018-07-31T17:37:21.789Z,93420.05
2018-07-31T17:39:50.626Z,93424.80
2018-07-31T17:42:26.078Z,93431.19
2018-07-31T17:44:54.658Z,93434.76
2018-07-31T17:47:22.984Z,93442.93
2018-07-31T17:49:51.220Z,93445.54
2018-07-31T17:52:19.412Z,93446.33
2018-07-31T17:54:47.632Z,93451.13
2018-07-31T17:57:15.979Z,93442.48
2018-07-31T17:59:44.366Z,93448.08
2018-07-31T18:02:12.627Z,93457.09
2018-07-31T18:04:40.839Z,93460.55
2018-07-31T18:07:09.169Z,93475.51
2018-07-31T18:09:37.491Z,93478.61
2018-07-31T18:12:06.088Z,93481.88
2018-07-31T18:14:35.898Z,93476.89
2018-07-31T18:17:04.475Z,93486.94
2018-07-31T18:19:32.828Z,93494.80
2018-07-31T18:22:01.265Z,93494.63
2018-07-31T18:24:29.764Z,93494.80
2018-07-31T18:26:58.004Z,93498.89
2018-07-31T18:29:26.302Z,93496.69
2018-07-31T18:31:54.592Z,93494.20
2018-07-31T18:34:22.917Z,93490.84
2018-07-31T18:36:51.220Z,93495.83
2018-07-31T18:39:19.552Z,93497.14
2018-07-31T18:41:47.828Z,93492.56
2018-07-31T18:44:16.362Z,93502.73
2018-07-31T18:46:44.818Z,93503.05
2018-07-31T18:49:13.360Z,93500.11
2018-07-31T18:51:41.731Z,93500.14
2018-07-31T18:54:10.062Z,93498.30
2018-07-31T18:56:38.344Z,93495.87
2018-07-31T18:59:06.773Z,93493.91
2018-07-31T19:01:35.140Z,93498.50
2018-07-31T19:04:03.636Z,93503.62
2018-07-31T19:06:31.862Z,93504.52
2018-07-31T19:09:00.093Z,93501.81
2018-07-31T19:11:28.290Z,93496.05
2018-07-31T19:13:56.420Z,93501.77
2018-07-31T19:16:24.760Z,93501.52
2018-07-31T19:18:53.034Z,93501.38
2018-07-31T19:21:21.248Z,93494.22
2018-07-31T19:23:49.467Z,93493.40
2018-07-31T19:26:17.580Z,93493.82
2018-07-31T19:28:45.710Z,93493.92
2018-07-31T19:31:14.048Z,93489.83
2018-07-31T19:33:42.185Z,93484.37
2018-07-31T19:36:10.459Z,93477.14
2018-07-31T19:38:38.771Z,93477.95
2018-07-31T19:41:06.970Z,93480.86
2018-07-31T19:43:35.159Z,93481.63
2018-07-31T19:46:03.491Z,93479.28
2018-07-31T19:48:31.662Z,93476.60
2018-07-31T19:50:59.973Z,93470.75
2018-07-31T19:53:28.285Z,93464.13
2018-07-31T19:55:56.461Z,93465.03
2018-07-31T19:58:24.893Z,93460.85
2018-07-31T20:00:53.180Z,93462.58
2018-07-31T20:03:21.470Z,93463.22
2018-07-31T20:05:49.755Z,93471.24
2018-07-31T20:08:18.207Z,93465.16
2018-07-31T20:10:47.052Z,93467.66
2018-07-31T20:13:16.388Z,93466.75
2018-07-31T20:15:45.026Z,93473.14
2018-07-31T20:18:13.543Z,93476.04
2018-07-31T20:20:42.701Z,93478.84
2018-07-31T20:23:11.298Z,93480.09
2018-07-31T20:25:39.710Z,93489.30
2018-07-31T20:28:08.579Z,93486.13
2018-07-31T20:30:37.012Z,93483.08
2018-07-31T20:33:05.151Z,93485.16
2018-07-31T20:35:33.282Z,93479.63
2018-07-31T20:38:01.517Z,93479.89
2018-07-31T20:40:29.724Z,93479.40
2018-07-31T20:42:57.941Z,93483.08
2018-07-31T20:45:26.327Z,93488.14
2018-07-31T20:47:54.571Z,93479.48
2018-07-31T20:50:22.840Z,93482.67
2018-07-31T20:52:51.067Z,93481.42
2018-07-31T20:55:19.283Z,93483.80
2018-07-31T20:57:47.653Z,93493.75
2018-07-31T21:00:15.881Z,93493.75
2018-07-31T21:02:44.300Z,93489.19
2018-07-31T21:05:12.485Z,93492.37
2018-07-31T21:07:40.799Z,93493.25
2018-07-31T21:10:09.072Z,93485.99
2018-07-31T21:12:37.287Z,93487.93
2018-07-31T21:15:05.648Z,93485.05
2018-07-31T21:17:33.744Z,93489.45
2018-07-31T21:20:02.106Z,93496.52
2018-07-31T21:22:30.427Z,93491.53
2018-07-31T21:24:58.576Z,93491.69
2018-07-31T21:27:30.752Z,93496.52
2018-07-31T21:29:59.336Z,93497.02
2018-07-31T21:32:33.221Z,93494.72
2018-07-31T21:35:03.725Z,93497.64
2018-07-31T21:37:32.285Z,93493.20
2018-07-31T21:40:00.378Z,93494.66
2018-07-31T21:42:28.564Z,93494.09
2018-07-31T21:44:58.934Z,93491.14
2018-07-31T21:47:30.851Z,93495.27
2018-07-31T21:50:00.241Z,93501.41
2018-07-31T21:52:28.391Z,93509.03
2018-07-31T21:54:56.622Z,93501.78
2018-07-31T21:57:24.838Z,93500.59
2018-07-31T21:59:52.982Z,93495.28
2018-07-31T22:02:21.056Z,93495.48
2018-07-31T22:04:49.120Z,93492.92
2018-07-31T22:07:17.325Z,93487.27
2018-07-31T22:09:45.344Z,93490.16
2018-07-31T22:12:13.637Z,93482.84
2018-07-31T22:14:42.199Z,93476.40
2018-07-31T22:17:10.312Z,93475.02
2018-07-31T22:19:38.445Z,93483.86
2018-07-31T22:22:06.527Z,93479.72
2018-07-31T22:24:34.666Z,93479.85
2018-07-31T22:27:02.916Z,93479.09
2018-07-31T22:29:31.039Z,93484.48
2018-07-31T22:31:59.091Z,93482.48
2018-07-31T22:34:27.136Z,93483.86
2018-07-31T22:36:55.240Z,93480.83
2018-07-31T22:39:23.332Z,93476.34
2018-07-31T22:41:51.728Z,93478.60
2018-07-31T22:44:19.920Z,93480.73
2018-07-31T22:46:48.110Z,93481.31
2018-07-31T22:49:16.296Z,93485.44
2018-07-31T22:51:44.667Z,93483.56
2018-07-31T22:54:12.894Z,93486.48
2018-07-31T22:56:41.138Z,93479.41
2018-07-31T22:59:09.413Z,93481.85
2018-07-31T23:01:37.524Z,93483.55
2018-07-31T23:04:05.763Z,93488.03
2018-07-31T23:06:33.943Z,93483.41
2018-07-31T23:09:02.061Z,93483.66
2018-07-31T23:11:30.246Z,93482.14
2018-07-31T23:13:58.594Z,93479.65
2018-07-31T23:16:26.664Z,93475.14
2018-07-31T23:18:54.877Z,93472.58
2018-07-31T23:21:23.085Z,93471.39
2018-07-31T23:23:51.203Z,93467.45
2018-07-31T23:26:19.391Z,93471.88
2018-07-31T23:28:47.544Z,93468.02
2018-07-31T23:31:15.591Z,93464.32
2018-07-31T23:33:43.604Z,93470.02
2018-07-31T23:36:11.860Z,93472.19
2018-07-31T23:38:39.978Z,93469.56
2018-07-31T23:41:08.139Z,93465.14
2018-07-31T23:43:36.373Z,93463.34
2018-07-31T23:46:04.401Z,93457.53
2018-07-31T23:48:32.491Z,93465.76
2018-07-31T23:51:00.559Z,93461.63
2018-07-31T23:53:28.629Z,93463.31
2018-07-31T23:55:56.683Z,93466.06
2018-07-31T23:58:24.751Z,93463.11
